FLTA4: Red River, Fulton, AR

Data processed at Tue Mar 31 23:23:10 2015 Central Daylight Time


All information presented herein is the property of the government of the United States of America and may be revised or deleted at any time without prior notice.
Dissemination of this information without the expressed written consent of the Public Affairs Office, Tulsa District U.S. Army Corps of Engineers is strictly prohibited.
These data are gathered electronically and, as presented, have not undergone any form of quality control. These data are not guaranteed to be valid or correct.
Go to home page.
Go to station list.
Go to station map.

Upstream stations:

Previous Day
Next Day
Current Day

Display graphics.
Display DCP transmissions.


    
    SHEF ID:       FLTA4     Red River, Fulton, AR
    STATION TYPE:  STREAM GAGE
    Regulation Limits:  Stage =   25.00, Flow =  128000
    
                   PRECIP     STAGE  RIV-FLOW   VOLTAGE
                   INCHES      FEET       CFS     VOLTS
                     GOES      GOES      GOES      GOES
       (Cen)
    03/31 02:00      0.00      4.47     17504     12.65
    03/31 03:00      0.00      4.45     17440     12.63
    03/31 04:00      0.00      4.44     17408     12.61
    03/31 05:00      0.00      4.43     17376     12.61
    03/31 06:00      0.00      4.41     17312     12.58
    03/31 07:00      0.00      4.41     17312     12.57
    03/31 08:00      0.00      4.40     17280     12.55
    03/31 09:00      0.00      4.39     17248     12.58
    03/31 10:00      0.00      4.37     17184     12.85
    03/31 11:00      0.00      4.37     17184     13.38
    03/31 12:00      0.00      4.32     17024     13.15
    03/31 13:00      0.00      4.34     17088     13.11
    03/31 14:00      0.00      4.30     16960     13.10
    03/31 15:00      0.00      4.28     16896     13.35
    03/31 16:00      0.00      4.27     16864     13.40
    03/31 17:00      0.00      4.22     16704     13.37
    03/31 18:00      0.00      4.23     16736     13.23
    03/31 19:00      0.00      4.21     16672     12.83
    03/31 20:00      0.00      4.20     16640     12.73
    03/31 21:00      0.00      4.16     16512     12.71
    03/31 22:00      0.00      4.14     16448     12.70
    03/31 23:00      0.00      4.12     16384     12.68
    04/01 00:00      0.00      4.09     16288     12.66
    04/01 01:00      ----      ----      ----      ----